sensor_id;sensor_type;location;lat;lon;timestamp;pressure;altitude;pressure_sealevel;temperature;humidity
70555;BME280;58104;52.744;15.242;2024-03-23T00:53:08;99997.12;;;17.71;50.12
70555;BME280;58104;52.744;15.242;2024-03-23T00:55:34;100003.60;;;17.84;50.15
70555;BME280;58104;52.744;15.242;2024-03-23T00:57:59;99997.24;;;17.78;49.97
70555;BME280;58104;52.744;15.242;2024-03-23T01:00:24;100001.32;;;17.78;50.19
70555;BME280;58104;52.744;15.242;2024-03-23T01:02:50;99996.14;;;17.84;50.06
70555;BME280;58104;52.744;15.242;2024-03-23T01:05:15;99993.54;;;17.75;49.98
70555;BME280;58104;52.744;15.242;2024-03-23T01:07:41;99993.63;;;17.80;50.10
70555;BME280;58104;52.744;15.242;2024-03-23T01:10:06;99992.36;;;17.72;50.09
70555;BME280;58104;52.744;15.242;2024-03-23T01:12:31;99998.72;;;17.65;49.72
70555;BME280;58104;52.744;15.242;2024-03-23T01:14:56;100009.52;;;17.65;50.17
70555;BME280;58104;52.744;15.242;2024-03-23T01:17:22;100016.16;;;17.66;49.68
70555;BME280;58104;52.744;15.242;2024-03-23T01:19:47;100014.24;;;17.73;49.62
70555;BME280;58104;52.744;15.242;2024-03-23T01:22:13;100011.07;;;17.68;49.44
70555;BME280;58104;52.744;15.242;2024-03-23T01:24:38;100012.36;;;17.71;49.78
70555;BME280;58104;52.744;15.242;2024-03-23T01:27:04;100015.98;;;17.70;49.35
70555;BME280;58104;52.744;15.242;2024-03-23T01:29:29;100017.45;;;17.55;49.23
70555;BME280;58104;52.744;15.242;2024-03-23T01:31:54;100025.11;;;17.58;49.45
70555;BME280;58104;52.744;15.242;2024-03-23T01:34:20;100019.59;;;17.55;48.97
70555;BME280;58104;52.744;15.242;2024-03-23T01:36:45;100017.00;;;17.60;49.09
70555;BME280;58104;52.744;15.242;2024-03-23T01:39:11;100009.49;;;17.58;49.26
70555;BME280;58104;52.744;15.242;2024-03-23T01:41:36;99997.40;;;17.58;49.22
70555;BME280;58104;52.744;15.242;2024-03-23T01:44:05;99993.64;;;17.58;49.25
70555;BME280;58104;52.744;15.242;2024-03-23T01:46:27;99993.76;;;17.60;49.21
70555;BME280;58104;52.744;15.242;2024-03-23T01:48:52;99990.32;;;17.65;48.85
70555;BME280;58104;52.744;15.242;2024-03-23T01:51:17;99985.49;;;17.62;49.09
70555;BME280;58104;52.744;15.242;2024-03-23T01:53:43;99977.44;;;17.54;49.02
70555;BME280;58104;52.744;15.242;2024-03-23T01:56:08;99975.71;;;17.57;48.97
70555;BME280;58104;52.744;15.242;2024-03-23T01:58:34;99976.29;;;17.51;48.95
70555;BME280;58104;52.744;15.242;2024-03-23T02:00:59;99976.54;;;17.49;48.80
70555;BME280;58104;52.744;15.242;2024-03-23T02:03:25;99974.67;;;17.53;48.97
70555;BME280;58104;52.744;15.242;2024-03-23T02:05:50;99976.58;;;17.55;48.83
70555;BME280;58104;52.744;15.242;2024-03-23T02:08:16;99976.19;;;17.49;48.53
70555;BME280;58104;52.744;15.242;2024-03-23T02:10:41;99981.54;;;17.49;48.90
70555;BME280;58104;52.744;15.242;2024-03-23T02:13:06;99981.37;;;17.57;48.78
70555;BME280;58104;52.744;15.242;2024-03-23T02:15:31;99985.77;;;17.56;48.73
70555;BME280;58104;52.744;15.242;2024-03-23T02:17:57;99983.97;;;17.55;48.81
70555;BME280;58104;52.744;15.242;2024-03-23T02:20:22;99981.81;;;17.49;48.60
70555;BME280;58104;52.744;15.242;2024-03-23T02:22:51;99984.20;;;17.54;48.75
70555;BME280;58104;52.744;15.242;2024-03-23T02:25:13;99980.32;;;17.42;48.87
70555;BME280;58104;52.744;15.242;2024-03-23T02:27:39;99971.36;;;17.48;48.70
70555;BME280;58104;52.744;15.242;2024-03-23T02:30:05;99969.48;;;17.44;48.86
70555;BME280;58104;52.744;15.242;2024-03-23T02:32:30;99970.52;;;17.42;48.74
70555;BME280;58104;52.744;15.242;2024-03-23T02:34:55;99968.99;;;17.43;48.53
70555;BME280;58104;52.744;15.242;2024-03-23T02:37:20;99973.09;;;17.44;48.39
70555;BME280;58104;52.744;15.242;2024-03-23T02:39:46;99970.81;;;17.39;48.58
70555;BME280;58104;52.744;15.242;2024-03-23T02:42:11;99967.90;;;17.39;48.52
70555;BME280;58104;52.744;15.242;2024-03-23T02:44:36;99970.11;;;17.45;48.69
70555;BME280;58104;52.744;15.242;2024-03-23T02:47:01;99962.56;;;17.31;48.50
70555;BME280;58104;52.744;15.242;2024-03-23T02:49:27;99965.65;;;17.42;48.48
70555;BME280;58104;52.744;15.242;2024-03-23T02:51:52;99961.30;;;17.40;48.32
70555;BME280;58104;52.744;15.242;2024-03-23T02:54:17;99959.89;;;17.39;48.34
70555;BME280;58104;52.744;15.242;2024-03-23T02:56:42;99955.29;;;17.29;48.36
70555;BME280;58104;52.744;15.242;2024-03-23T02:59:08;99952.27;;;17.22;48.61
70555;BME280;58104;52.744;15.242;2024-03-23T03:01:33;99950.96;;;17.23;48.38
70555;BME280;58104;52.744;15.242;2024-03-23T03:04:00;99945.22;;;17.24;49.17
70555;BME280;58104;52.744;15.242;2024-03-23T03:06:24;99940.97;;;17.20;49.07
70555;BME280;58104;52.744;15.242;2024-03-23T03:08:49;99935.26;;;17.23;49.08
70555;BME280;58104;52.744;15.242;2024-03-23T03:11:15;99919.23;;;17.25;48.98
70555;BME280;58104;52.744;15.242;2024-03-23T03:13:40;99908.26;;;17.19;48.67
70555;BME280;58104;52.744;15.242;2024-03-23T03:16:08;99908.05;;;17.24;48.66
70555;BME280;58104;52.744;15.242;2024-03-23T03:18:31;99896.31;;;17.26;48.59
70555;BME280;58104;52.744;15.242;2024-03-23T03:20:57;99891.49;;;17.23;48.41
70555;BME280;58104;52.744;15.242;2024-03-23T03:23:22;99886.69;;;17.14;48.74
70555;BME280;58104;52.744;15.242;2024-03-23T03:25:47;99884.24;;;17.15;48.56
70555;BME280;58104;52.744;15.242;2024-03-23T03:28:12;99875.11;;;17.12;48.38
70555;BME280;58104;52.744;15.242;2024-03-23T03:30:38;99870.86;;;17.15;48.57
70555;BME280;58104;52.744;15.242;2024-03-23T03:33:03;99869.24;;;17.17;48.30
70555;BME280;58104;52.744;15.242;2024-03-23T03:35:28;99865.77;;;17.20;48.24
70555;BME280;58104;52.744;15.242;2024-03-23T03:37:53;99873.91;;;17.12;48.42
70555;BME280;58104;52.744;15.242;2024-03-23T03:40:19;99877.46;;;17.13;48.25
70555;BME280;58104;52.744;15.242;2024-03-23T03:42:44;99875.85;;;17.14;48.34
70555;BME280;58104;52.744;15.242;2024-03-23T03:45:09;99873.75;;;17.13;48.22
70555;BME280;58104;52.744;15.242;2024-03-23T03:47:35;99870.50;;;17.10;48.19
70555;BME280;58104;52.744;15.242;2024-03-23T03:50:00;99874.56;;;17.13;48.40
70555;BME280;58104;52.744;15.242;2024-03-23T03:52:26;99884.31;;;17.14;48.15
70555;BME280;58104;52.744;15.242;2024-03-23T03:54:51;99888.56;;;17.14;48.21
70555;BME280;58104;52.744;15.242;2024-03-23T03:57:16;99890.80;;;17.14;48.43
70555;BME280;58104;52.744;15.242;2024-03-23T03:59:42;99891.78;;;17.11;47.95
70555;BME280;58104;52.744;15.242;2024-03-23T04:02:07;99887.66;;;17.09;48.31
70555;BME280;58104;52.744;15.242;2024-03-23T04:04:32;99881.36;;;17.10;48.13
70555;BME280;58104;52.744;15.242;2024-03-23T04:06:59;99872.67;;;17.10;48.11
70555;BME280;58104;52.744;15.242;2024-03-23T04:09:23;99865.41;;;17.05;47.85
70555;BME280;58104;52.744;15.242;2024-03-23T04:11:48;99857.45;;;17.01;48.16
70555;BME280;58104;52.744;15.242;2024-03-23T04:14:14;99852.98;;;17.05;48.18
70555;BME280;58104;52.744;15.242;2024-03-23T04:16:39;99848.42;;;17.01;48.12
70555;BME280;58104;52.744;15.242;2024-03-23T04:19:05;99840.01;;;17.06;48.12
70555;BME280;58104;52.744;15.242;2024-03-23T04:21:30;99836.59;;;17.06;47.85
70555;BME280;58104;52.744;15.242;2024-03-23T04:23:55;99832.14;;;17.09;47.88
70555;BME280;58104;52.744;15.242;2024-03-23T04:26:20;99824.92;;;17.01;47.97
70555;BME280;58104;52.744;15.242;2024-03-23T04:28:46;99823.04;;;17.05;48.01
70555;BME280;58104;52.744;15.242;2024-03-23T04:31:11;99831.33;;;16.98;47.91
70555;BME280;58104;52.744;15.242;2024-03-23T04:33:37;99834.09;;;17.02;47.89
70555;BME280;58104;52.744;15.242;2024-03-23T04:36:02;99834.08;;;17.03;47.90
70555;BME280;58104;52.744;15.242;2024-03-23T04:38:27;99833.36;;;17.05;47.83
70555;BME280;58104;52.744;15.242;2024-03-23T04:40:55;99827.53;;;17.06;47.78
70555;BME280;58104;52.744;15.242;2024-03-23T04:43:18;99823.62;;;17.19;47.76
70555;BME280;58104;52.744;15.242;2024-03-23T04:45:43;99821.29;;;17.05;47.57
70555;BME280;58104;52.744;15.242;2024-03-23T04:48:09;99814.72;;;17.03;47.59
70555;BME280;58104;52.744;15.242;2024-03-23T04:50:34;99809.45;;;17.03;47.49
70555;BME280;58104;52.744;15.242;2024-03-23T04:53:00;99809.92;;;17.03;47.43
70555;BME280;58104;52.744;15.242;2024-03-23T04:55:25;99804.92;;;17.04;47.67
70555;BME280;58104;52.744;15.242;2024-03-23T04:57:51;99804.42;;;17.06;47.68
70555;BME280;58104;52.744;15.242;2024-03-23T05:00:17;99802.23;;;17.04;47.48
70555;BME280;58104;52.744;15.242;2024-03-23T05:02:43;99801.94;;;17.02;47.55
70555;BME280;58104;52.744;15.242;2024-03-23T05:05:08;99801.87;;;17.03;47.67
70555;BME280;58104;52.744;15.242;2024-03-23T05:07:33;99802.46;;;17.03;47.64
70555;BME280;58104;52.744;15.242;2024-03-23T05:09:59;99795.88;;;16.98;47.56
70555;BME280;58104;52.744;15.242;2024-03-23T05:12:24;99794.07;;;16.97;47.52
70555;BME280;58104;52.744;15.242;2024-03-23T05:14:49;99788.81;;;16.98;47.64
70555;BME280;58104;52.744;15.242;2024-03-23T05:17:15;99787.28;;;17.01;47.38
70555;BME280;58104;52.744;15.242;2024-03-23T05:19:40;99783.55;;;16.94;47.59
70555;BME280;58104;52.744;15.242;2024-03-23T05:22:06;99774.86;;;16.99;47.59
70555;BME280;58104;52.744;15.242;2024-03-23T05:24:31;99771.33;;;16.92;47.59
70555;BME280;58104;52.744;15.242;2024-03-23T05:26:56;99775.20;;;16.98;47.54
70555;BME280;58104;52.744;15.242;2024-03-23T05:29:22;99782.65;;;16.90;47.50
70555;BME280;58104;52.744;15.242;2024-03-23T05:31:49;99779.59;;;16.93;47.48
70555;BME280;58104;52.744;15.242;2024-03-23T05:34:12;99779.24;;;16.93;47.56
70555;BME280;58104;52.744;15.242;2024-03-23T05:36:38;99779.84;;;16.93;47.49
70555;BME280;58104;52.744;15.242;2024-03-23T05:39:03;99789.58;;;16.98;47.41
70555;BME280;58104;52.744;15.242;2024-03-23T05:41:28;99796.09;;;17.05;47.19
70555;BME280;58104;52.744;15.242;2024-03-23T05:43:54;99791.57;;;17.01;47.18
70555;BME280;58104;52.744;15.242;2024-03-23T05:46:19;99787.23;;;16.99;47.34
70555;BME280;58104;52.744;15.242;2024-03-23T05:48:44;99777.16;;;16.97;47.19
70555;BME280;58104;52.744;15.242;2024-03-23T05:51:10;99776.67;;;16.97;47.19
70555;BME280;58104;52.744;15.242;2024-03-23T05:53:35;99780.61;;;16.91;47.34
70555;BME280;58104;52.744;15.242;2024-03-23T05:56:01;99781.66;;;16.90;47.24
70555;BME280;58104;52.744;15.242;2024-03-23T05:58:26;99782.17;;;16.97;47.31
70555;BME280;58104;52.744;15.242;2024-03-23T06:00:57;99775.61;;;16.91;47.32
70555;BME280;58104;52.744;15.242;2024-03-23T06:03:17;99772.56;;;17.00;47.12
70555;BME280;58104;52.744;15.242;2024-03-23T06:05:43;99773.99;;;17.04;47.19
70555;BME280;58104;52.744;15.242;2024-03-23T06:08:08;99768.00;;;16.97;46.97
70555;BME280;58104;52.744;15.242;2024-03-23T06:10:33;99760.97;;;17.08;47.06
70555;BME280;58104;52.744;15.242;2024-03-23T06:12:59;99758.57;;;17.02;47.02
70555;BME280;58104;52.744;15.242;2024-03-23T06:15:24;99752.49;;;16.89;47.11
70555;BME280;58104;52.744;15.242;2024-03-23T06:17:49;99752.79;;;16.90;47.00
70555;BME280;58104;52.744;15.242;2024-03-23T06:20:16;99754.28;;;16.89;46.91
70555;BME280;58104;52.744;15.242;2024-03-23T06:22:40;99755.21;;;16.89;47.16
70555;BME280;58104;52.744;15.242;2024-03-23T06:25:06;99753.73;;;16.89;46.94
70555;BME280;58104;52.744;15.242;2024-03-23T06:27:32;99755.10;;;16.90;47.29
70555;BME280;58104;52.744;15.242;2024-03-23T06:29:57;99751.26;;;16.95;46.95
70555;BME280;58104;52.744;15.242;2024-03-23T06:32:22;99752.34;;;16.86;47.12
70555;BME280;58104;52.744;15.242;2024-03-23T06:34:47;99749.43;;;16.91;47.19
70555;BME280;58104;52.744;15.242;2024-03-23T06:37:13;99738.46;;;16.82;46.87
70555;BME280;58104;52.744;15.242;2024-03-23T06:39:38;99736.29;;;16.92;47.01
70555;BME280;58104;52.744;15.242;2024-03-23T06:42:04;99740.83;;;16.79;47.09
70555;BME280;58104;52.744;15.242;2024-03-23T06:44:29;99743.52;;;16.77;46.98
70555;BME280;58104;52.744;15.242;2024-03-23T06:46:55;99736.84;;;16.79;47.09
70555;BME280;58104;52.744;15.242;2024-03-23T06:49:20;99731.65;;;16.86;46.95
70555;BME280;58104;52.744;15.242;2024-03-23T06:51:45;99731.64;;;16.85;46.91
70555;BME280;58104;52.744;15.242;2024-03-23T06:54:11;99733.39;;;16.87;46.90
70555;BME280;58104;52.744;15.242;2024-03-23T06:56:36;99742.89;;;16.94;46.78
70555;BME280;58104;52.744;15.242;2024-03-23T06:59:01;99742.96;;;16.86;48.79
70555;BME280;58104;52.744;15.242;2024-03-23T07:01:27;99727.01;;;16.91;51.19
70555;BME280;58104;52.744;15.242;2024-03-23T07:03:52;99684.16;;;16.97;50.98
70555;BME280;58104;52.744;15.242;2024-03-23T07:06:18;99708.12;;;16.84;50.42
70555;BME280;58104;52.744;15.242;2024-03-23T07:08:43;99713.08;;;16.91;50.14
70555;BME280;58104;52.744;15.242;2024-03-23T07:11:09;99707.13;;;16.94;49.71
70555;BME280;58104;52.744;15.242;2024-03-23T07:13:34;99703.09;;;16.95;49.67
70555;BME280;58104;52.744;15.242;2024-03-23T07:15:59;99709.25;;;17.07;49.58
70555;BME280;58104;52.744;15.242;2024-03-23T07:18:25;99711.28;;;16.96;49.08
70555;BME280;58104;52.744;15.242;2024-03-23T07:20:54;99703.58;;;16.99;49.26
70555;BME280;58104;52.744;15.242;2024-03-23T07:23:16;99694.57;;;16.95;48.92
70555;BME280;58104;52.744;15.242;2024-03-23T07:25:41;99688.64;;;16.92;48.21
70555;BME280;58104;52.744;15.242;2024-03-23T07:28:07;99686.47;;;16.56;47.98
70555;BME280;58104;52.744;15.242;2024-03-23T07:30:32;99687.83;;;16.17;48.73
70555;BME280;58104;52.744;15.242;2024-03-23T07:32:57;99685.33;;;16.20;48.85
70555;BME280;58104;52.744;15.242;2024-03-23T07:35:23;99689.83;;;16.04;49.00
70555;BME280;58104;52.744;15.242;2024-03-23T07:37:48;99689.30;;;16.06;49.13
70555;BME280;58104;52.744;15.242;2024-03-23T07:40:14;99688.69;;;16.00;49.66
70555;BME280;58104;52.744;15.242;2024-03-23T07:42:39;99684.13;;;16.20;49.32
70555;BME280;58104;52.744;15.242;2024-03-23T07:45:05;99675.61;;;16.26;48.72
70555;BME280;58104;52.744;15.242;2024-03-23T07:47:30;99672.44;;;16.25;49.44
70555;BME280;58104;52.744;15.242;2024-03-23T07:49:56;99673.82;;;16.34;48.51
70555;BME280;58104;52.744;15.242;2024-03-23T07:52:21;99668.67;;;16.39;49.72
70555;BME280;58104;52.744;15.242;2024-03-23T07:54:47;99668.15;;;16.41;49.24
70555;BME280;58104;52.744;15.242;2024-03-23T07:57:12;99662.73;;;16.42;49.04
70555;BME280;58104;52.744;15.242;2024-03-23T07:59:38;99655.25;;;16.57;49.08
70555;BME280;58104;52.744;15.242;2024-03-23T08:02:03;99651.37;;;16.62;49.74
70555;BME280;58104;52.744;15.242;2024-03-23T08:04:28;99645.47;;;16.65;49.97
70555;BME280;58104;52.744;15.242;2024-03-23T08:06:53;99641.87;;;16.58;48.97
70555;BME280;58104;52.744;15.242;2024-03-23T08:09:19;99642.19;;;16.62;48.69
70555;BME280;58104;52.744;15.242;2024-03-23T08:11:44;99641.73;;;16.70;49.60
70555;BME280;58104;52.744;15.242;2024-03-23T08:14:10;99641.57;;;16.71;49.57
70555;BME280;58104;52.744;15.242;2024-03-23T08:16:35;99638.95;;;16.81;49.57
70555;BME280;58104;52.744;15.242;2024-03-23T08:19:00;99633.96;;;16.75;49.76
70555;BME280;58104;52.744;15.242;2024-03-23T08:21:25;99629.57;;;16.99;49.25
70555;BME280;58104;52.744;15.242;2024-03-23T08:23:51;99624.91;;;17.10;49.14
70555;BME280;58104;52.744;15.242;2024-03-23T08:26:16;99627.37;;;17.01;49.56
70555;BME280;58104;52.744;15.242;2024-03-23T08:28:42;99627.44;;;17.08;50.12
70555;BME280;58104;52.744;15.242;2024-03-23T08:31:08;99625.35;;;17.16;48.91
70555;BME280;58104;52.744;15.242;2024-03-23T08:33:32;99625.35;;;17.14;48.73
70555;BME280;58104;52.744;15.242;2024-03-23T08:36:00;99612.06;;;17.11;50.32
70555;BME280;58104;52.744;15.242;2024-03-23T08:38:24;99603.77;;;17.04;50.11
70555;BME280;58104;52.744;15.242;2024-03-23T08:40:57;99592.02;;;17.12;49.89
70555;BME280;58104;52.744;15.242;2024-03-23T08:43:14;99583.27;;;17.16;50.08
70555;BME280;58104;52.744;15.242;2024-03-23T08:45:39;99583.95;;;17.01;50.84
70555;BME280;58104;52.744;15.242;2024-03-23T08:48:05;99580.52;;;17.15;50.69
70555;BME280;58104;52.744;15.242;2024-03-23T08:50:30;99575.10;;;17.22;50.55
70555;BME280;58104;52.744;15.242;2024-03-23T08:52:56;99566.41;;;17.21;49.39
70555;BME280;58104;52.744;15.242;2024-03-23T08:55:21;99563.95;;;17.22;50.78
70555;BME280;58104;52.744;15.242;2024-03-23T08:57:46;99562.46;;;17.09;51.55
70555;BME280;58104;52.744;15.242;2024-03-23T09:00:13;99559.35;;;16.90;51.39
70555;BME280;58104;52.744;15.242;2024-03-23T09:02:37;99558.87;;;16.87;52.90
70555;BME280;58104;52.744;15.242;2024-03-23T09:05:04;99553.22;;;16.74;54.83
70555;BME280;58104;52.744;15.242;2024-03-23T09:07:28;99552.86;;;16.80;55.02
70555;BME280;58104;52.744;15.242;2024-03-23T09:09:54;99553.12;;;16.71;54.03
70555;BME280;58104;52.744;15.242;2024-03-23T09:12:19;99555.15;;;16.72;55.32
70555;BME280;58104;52.744;15.242;2024-03-23T09:14:45;99561.47;;;16.77;55.24
70555;BME280;58104;52.744;15.242;2024-03-23T09:17:10;99566.40;;;16.90;55.54
70555;BME280;58104;52.744;15.242;2024-03-23T09:19:35;99567.17;;;17.01;54.27
70555;BME280;58104;52.744;15.242;2024-03-23T09:22:00;99571.82;;;16.91;53.65
70555;BME280;58104;52.744;15.242;2024-03-23T09:24:26;99565.16;;;16.86;52.66
70555;BME280;58104;52.744;15.242;2024-03-23T09:26:51;99556.64;;;16.95;52.98
70555;BME280;58104;52.744;15.242;2024-03-23T09:29:17;99560.45;;;16.75;53.06
70555;BME280;58104;52.744;15.242;2024-03-23T09:31:42;99560.13;;;16.72;52.42
70555;BME280;58104;52.744;15.242;2024-03-23T09:34:07;99561.29;;;16.84;53.68
70555;BME280;58104;52.744;15.242;2024-03-23T09:36:33;99555.36;;;16.77;53.05
70555;BME280;58104;52.744;15.242;2024-03-23T09:38:58;99544.71;;;16.79;53.53
70555;BME280;58104;52.744;15.242;2024-03-23T09:41:23;99536.26;;;16.88;52.87
70555;BME280;58104;52.744;15.242;2024-03-23T09:43:52;99523.99;;;16.98;51.89
70555;BME280;58104;52.744;15.242;2024-03-23T09:46:14;99517.06;;;17.09;52.25
70555;BME280;58104;52.744;15.242;2024-03-23T09:48:40;99515.71;;;17.11;51.02
70555;BME280;58104;52.744;15.242;2024-03-23T09:51:05;99520.02;;;17.05;50.86
70555;BME280;58104;52.744;15.242;2024-03-23T09:53:31;99511.05;;;17.06;51.05
70555;BME280;58104;52.744;15.242;2024-03-23T09:55:56;99504.63;;;16.98;51.09
70555;BME280;58104;52.744;15.242;2024-03-23T09:58:23;99496.24;;;16.91;51.15
70555;BME280;58104;52.744;15.242;2024-03-23T10:00:46;99489.78;;;17.03;51.12
70555;BME280;58104;52.744;15.242;2024-03-23T10:03:12;99485.33;;;17.00;50.90
70555;BME280;58104;52.744;15.242;2024-03-23T10:05:38;99481.16;;;16.99;50.75
70555;BME280;58104;52.744;15.242;2024-03-23T10:08:18;99486.08;;;17.11;50.94
70555;BME280;58104;52.744;15.242;2024-03-23T10:10:28;99491.20;;;17.05;50.08
70555;BME280;58104;52.744;15.242;2024-03-23T10:12:53;99488.54;;;17.09;50.10
70555;BME280;58104;52.744;15.242;2024-03-23T10:15:20;99483.92;;;17.03;49.95
70555;BME280;58104;52.744;15.242;2024-03-23T10:17:44;99474.49;;;16.96;49.70
70555;BME280;58104;52.744;15.242;2024-03-23T10:20:10;99468.70;;;16.99;49.54
70555;BME280;58104;52.744;15.242;2024-03-23T10:22:37;99470.38;;;16.97;49.65
70555;BME280;58104;52.744;15.242;2024-03-23T10:25:07;99475.41;;;16.87;49.67
70555;BME280;58104;52.744;15.242;2024-03-23T10:27:25;99477.39;;;16.83;51.48
70555;BME280;58104;52.744;15.242;2024-03-23T10:29:50;99479.84;;;16.94;50.12
70555;BME280;58104;52.744;15.242;2024-03-23T10:32:17;99488.86;;;16.97;50.84
70555;BME280;58104;52.744;15.242;2024-03-23T10:34:41;99487.58;;;16.84;49.71
70555;BME280;58104;52.744;15.242;2024-03-23T10:37:08;99484.13;;;16.88;51.29
70555;BME280;58104;52.744;15.242;2024-03-23T10:39:33;99483.00;;;17.27;50.21
70555;BME280;58104;52.744;15.242;2024-03-23T10:41:58;99477.41;;;17.22;49.29
70555;BME280;58104;52.744;15.242;2024-03-23T10:44:23;99476.75;;;17.40;49.45
70555;BME280;58104;52.744;15.242;2024-03-23T10:46:48;99477.53;;;17.24;47.80
70555;BME280;58104;52.744;15.242;2024-03-23T10:49:13;99483.69;;;17.21;53.22
70555;BME280;58104;52.744;15.242;2024-03-23T10:51:39;99483.29;;;16.92;51.31
70555;BME280;58104;52.744;15.242;2024-03-23T10:54:05;99497.26;;;17.08;54.17
70555;BME280;58104;52.744;15.242;2024-03-23T10:56:31;99506.29;;;17.20;50.77
70555;BME280;58104;52.744;15.242;2024-03-23T10:58:55;99520.50;;;17.24;50.27
70555;BME280;58104;52.744;15.242;2024-03-23T11:01:20;99537.97;;;17.32;49.67
70555;BME280;58104;52.744;15.242;2024-03-23T11:03:46;99549.52;;;17.26;49.48
70555;BME280;58104;52.744;15.242;2024-03-23T11:08:39;99566.34;;;16.85;50.11
70555;BME280;58104;52.744;15.242;2024-03-23T11:11:13;99557.87;;;16.76;49.51
70555;BME280;58104;52.744;15.242;2024-03-23T11:13:29;99555.27;;;16.57;48.79
70555;BME280;58104;52.744;15.242;2024-03-23T11:15:54;99552.64;;;16.46;48.97
70555;BME280;58104;52.744;15.242;2024-03-23T11:18:21;99556.60;;;16.43;49.11
70555;BME280;58104;52.744;15.242;2024-03-23T11:20:44;99562.33;;;16.38;48.87
70555;BME280;58104;52.744;15.242;2024-03-23T11:25:35;99566.91;;;16.23;48.88
70555;BME280;58104;52.744;15.242;2024-03-23T11:28:10;99572.49;;;16.14;49.49
70555;BME280;58104;52.744;15.242;2024-03-23T11:30:27;99573.65;;;16.13;49.23
70555;BME280;58104;52.744;15.242;2024-03-23T11:32:52;99577.18;;;16.19;49.29
70555;BME280;58104;52.744;15.242;2024-03-23T11:35:26;99585.30;;;16.13;49.21
70555;BME280;58104;52.744;15.242;2024-03-23T11:37:42;99588.71;;;16.13;49.39
70555;BME280;58104;52.744;15.242;2024-03-23T11:40:18;99590.22;;;16.14;49.03
70555;BME280;58104;52.744;15.242;2024-03-23T11:42:33;99595.26;;;16.02;49.35
70555;BME280;58104;52.744;15.242;2024-03-23T11:44:59;99604.11;;;15.96;49.12
70555;BME280;58104;52.744;15.242;2024-03-23T11:47:24;99604.68;;;15.90;48.82
70555;BME280;58104;52.744;15.242;2024-03-23T11:49:49;99602.31;;;16.13;50.69
70555;BME280;58104;52.744;15.242;2024-03-23T11:52:16;99599.30;;;16.05;48.30
70555;BME280;58104;52.744;15.242;2024-03-23T11:54:40;99597.30;;;16.11;48.18
70555;BME280;58104;52.744;15.242;2024-03-23T11:57:08;99600.42;;;16.00;48.48
70555;BME280;58104;52.744;15.242;2024-03-23T11:59:32;99604.60;;;16.07;48.68
70555;BME280;58104;52.744;15.242;2024-03-23T12:01:56;99595.33;;;16.00;48.88
70555;BME280;58104;52.744;15.242;2024-03-23T12:04:26;99590.50;;;16.05;48.93
70555;BME280;58104;52.744;15.242;2024-03-23T12:06:47;99587.12;;;16.15;48.57
70555;BME280;58104;52.744;15.242;2024-03-23T12:09:13;99584.60;;;16.11;48.07
70555;BME280;58104;52.744;15.242;2024-03-23T12:11:38;99593.91;;;16.17;47.55
70555;BME280;58104;52.744;15.242;2024-03-23T12:14:03;99600.92;;;16.01;48.55
70555;BME280;58104;52.744;15.242;2024-03-23T12:16:29;99605.71;;;16.14;48.70
70555;BME280;58104;52.744;15.242;2024-03-23T12:19:04;99609.77;;;16.24;48.55
70555;BME280;58104;52.744;15.242;2024-03-23T12:21:20;99609.84;;;16.31;46.46
70555;BME280;58104;52.744;15.242;2024-03-23T12:23:45;99618.83;;;16.41;47.31
70555;BME280;58104;52.744;15.242;2024-03-23T12:26:11;99626.17;;;16.37;46.91
70555;BME280;58104;52.744;15.242;2024-03-23T12:28:36;99631.85;;;16.23;46.79
70555;BME280;58104;52.744;15.242;2024-03-23T12:31:02;99629.25;;;16.09;46.91
70555;BME280;58104;52.744;15.242;2024-03-23T12:33:27;99626.54;;;16.13;48.30
70555;BME280;58104;52.744;15.242;2024-03-23T12:35:53;99627.92;;;16.13;46.49
70555;BME280;58104;52.744;15.242;2024-03-23T12:38:18;99632.97;;;16.23;47.28
70555;BME280;58104;52.744;15.242;2024-03-23T12:40:46;99631.71;;;16.12;46.47
70555;BME280;58104;52.744;15.242;2024-03-23T12:43:09;99631.16;;;16.13;47.29
70555;BME280;58104;52.744;15.242;2024-03-23T12:45:35;99631.37;;;16.22;47.03
70555;BME280;58104;52.744;15.242;2024-03-23T12:48:00;99636.10;;;16.35;46.54
70555;BME280;58104;52.744;15.242;2024-03-23T12:50:25;99636.50;;;16.30;46.15
70555;BME280;58104;52.744;15.242;2024-03-23T12:52:51;99645.65;;;16.47;46.06
70555;BME280;58104;52.744;15.242;2024-03-23T12:55:17;99644.37;;;16.51;45.94
70555;BME280;58104;52.744;15.242;2024-03-23T12:57:42;99656.39;;;16.49;44.81
70555;BME280;58104;52.744;15.242;2024-03-23T13:00:08;99657.16;;;16.46;45.46
70555;BME280;58104;52.744;15.242;2024-03-23T13:02:33;99656.99;;;16.26;45.42
70555;BME280;58104;52.744;15.242;2024-03-23T13:04:58;99655.29;;;16.23;45.86
70555;BME280;58104;52.744;15.242;2024-03-23T13:07:23;99660.80;;;16.17;45.53
70555;BME280;58104;52.744;15.242;2024-03-23T13:09:50;99659.14;;;16.12;45.63
70555;BME280;58104;52.744;15.242;2024-03-23T13:12:14;99661.36;;;16.19;46.13
70555;BME280;58104;52.744;15.242;2024-03-23T13:14:40;99659.36;;;16.27;45.88
70555;BME280;58104;52.744;15.242;2024-03-23T13:17:07;99660.43;;;16.09;44.99
70555;BME280;58104;52.744;15.242;2024-03-23T13:19:32;99656.80;;;16.31;46.29
70555;BME280;58104;52.744;15.242;2024-03-23T13:21:57;99670.19;;;16.42;45.78
70555;BME280;58104;52.744;15.242;2024-03-23T13:24:22;99675.42;;;16.55;45.33
70555;BME280;58104;52.744;15.242;2024-03-23T13:26:47;99681.04;;;16.62;45.21
70555;BME280;58104;52.744;15.242;2024-03-23T13:29:12;99685.34;;;16.70;44.22
70555;BME280;58104;52.744;15.242;2024-03-23T13:31:38;99692.41;;;16.61;44.68
70555;BME280;58104;52.744;15.242;2024-03-23T13:34:03;99698.58;;;16.30;44.70
70555;BME280;58104;52.744;15.242;2024-03-23T13:36:29;99707.04;;;16.19;44.62